Toquerville, Utah
Current Conditions -  °F | °C
As of 1:55 AM on Wednesday 26 Nov 2014 (Local Time) from KSGU Reporting Station
Clear Clear  
Wind Chill: 36°   Ceiling: Unl
Heat Index: 39°   Visibility: 10mi
Dew Point:   Wind: 5mph
Humidity: 28%   Direction: 190°S
Pressure: 30.43"   Gusts: NA
Location:  37.25°N, 113.28°W
Report Text: KSGU 260855Z AUTO 19004KT 10SM CLR 04/M13 A3043 RMK AO1 57003
Loading
Personal Weather Stations






























Interactive Weather Map New forecast layout! Learn more

10-Day Weather Forecast

Advertisements
Track Severe Weather on mobile